sensor_id;sensor_type;location;lat;lon;timestamp;P1;durP1;ratioP1;P2;durP2;ratioP2
21671;SDS011;10997;52.242;8.168;2023-09-30T00:02:20;20.33;;;5.45;;
21671;SDS011;10997;52.242;8.168;2023-09-30T00:07:21;25.40;;;6.30;;
21671;SDS011;10997;52.242;8.168;2023-09-30T00:12:21;27.83;;;6.95;;
21671;SDS011;10997;52.242;8.168;2023-09-30T00:17:22;28.27;;;6.22;;
21671;SDS011;10997;52.242;8.168;2023-09-30T00:22:22;31.58;;;6.63;;
21671;SDS011;10997;52.242;8.168;2023-09-30T00:27:23;21.73;;;6.00;;
21671;SDS011;10997;52.242;8.168;2023-09-30T00:32:23;23.45;;;5.82;;
21671;SDS011;10997;52.242;8.168;2023-09-30T00:37:24;22.65;;;6.22;;
21671;SDS011;10997;52.242;8.168;2023-09-30T00:42:25;25.75;;;6.10;;
21671;SDS011;10997;52.242;8.168;2023-09-30T00:47:25;27.75;;;6.63;;
21671;SDS011;10997;52.242;8.168;2023-09-30T00:52:26;25.17;;;5.80;;
21671;SDS011;10997;52.242;8.168;2023-09-30T00:57:27;26.60;;;6.00;;
21671;SDS011;10997;52.242;8.168;2023-09-30T01:02:29;24.38;;;5.20;;
21671;SDS011;10997;52.242;8.168;2023-09-30T01:07:30;32.90;;;6.35;;
21671;SDS011;10997;52.242;8.168;2023-09-30T01:12:30;25.63;;;5.35;;
21671;SDS011;10997;52.242;8.168;2023-09-30T01:17:32;28.60;;;5.78;;
21671;SDS011;10997;52.242;8.168;2023-09-30T01:22:32;15.52;;;5.28;;
21671;SDS011;10997;52.242;8.168;2023-09-30T01:27:33;25.27;;;5.57;;
21671;SDS011;10997;52.242;8.168;2023-09-30T01:32:34;21.65;;;5.80;;
21671;SDS011;10997;52.242;8.168;2023-09-30T01:37:35;24.98;;;5.65;;
21671;SDS011;10997;52.242;8.168;2023-09-30T01:42:36;23.23;;;5.38;;
21671;SDS011;10997;52.242;8.168;2023-09-30T01:47:37;23.35;;;5.43;;
21671;SDS011;10997;52.242;8.168;2023-09-30T01:52:37;24.70;;;4.85;;
21671;SDS011;10997;52.242;8.168;2023-09-30T01:57:38;22.98;;;5.80;;
21671;SDS011;10997;52.242;8.168;2023-09-30T02:02:38;23.00;;;5.25;;
21671;SDS011;10997;52.242;8.168;2023-09-30T02:07:39;22.80;;;5.15;;
21671;SDS011;10997;52.242;8.168;2023-09-30T02:12:40;27.95;;;5.72;;
21671;SDS011;10997;52.242;8.168;2023-09-30T02:17:41;26.60;;;6.20;;
21671;SDS011;10997;52.242;8.168;2023-09-30T02:22:45;22.80;;;5.85;;
21671;SDS011;10997;52.242;8.168;2023-09-30T02:27:47;20.80;;;6.13;;
21671;SDS011;10997;52.242;8.168;2023-09-30T02:32:49;22.13;;;5.60;;
21671;SDS011;10997;52.242;8.168;2023-09-30T02:37:50;29.42;;;6.00;;
21671;SDS011;10997;52.242;8.168;2023-09-30T02:42:51;18.75;;;5.57;;
21671;SDS011;10997;52.242;8.168;2023-09-30T02:47:52;27.75;;;6.20;;
21671;SDS011;10997;52.242;8.168;2023-09-30T02:52:53;18.25;;;5.68;;
21671;SDS011;10997;52.242;8.168;2023-09-30T02:57:53;21.88;;;6.10;;
21671;SDS011;10997;52.242;8.168;2023-09-30T03:02:54;22.10;;;6.10;;
21671;SDS011;10997;52.242;8.168;2023-09-30T03:07:55;20.83;;;5.82;;
21671;SDS011;10997;52.242;8.168;2023-09-30T03:12:56;23.83;;;6.20;;
21671;SDS011;10997;52.242;8.168;2023-09-30T03:18:01;28.23;;;5.67;;
21671;SDS011;10997;52.242;8.168;2023-09-30T03:23:03;27.73;;;6.40;;
21671;SDS011;10997;52.242;8.168;2023-09-30T03:28:04;19.98;;;5.70;;
21671;SDS011;10997;52.242;8.168;2023-09-30T03:33:06;19.95;;;5.25;;
21671;SDS011;10997;52.242;8.168;2023-09-30T03:38:06;21.45;;;5.25;;
21671;SDS011;10997;52.242;8.168;2023-09-30T03:43:08;21.63;;;5.55;;
21671;SDS011;10997;52.242;8.168;2023-09-30T03:48:10;22.05;;;5.78;;
21671;SDS011;10997;52.242;8.168;2023-09-30T03:53:11;23.02;;;5.65;;
21671;SDS011;10997;52.242;8.168;2023-09-30T03:58:12;20.75;;;5.90;;
21671;SDS011;10997;52.242;8.168;2023-09-30T04:03:12;22.05;;;5.97;;
21671;SDS011;10997;52.242;8.168;2023-09-30T04:08:13;20.75;;;5.53;;
21671;SDS011;10997;52.242;8.168;2023-09-30T04:13:15;18.15;;;5.72;;
21671;SDS011;10997;52.242;8.168;2023-09-30T04:18:15;21.80;;;5.65;;
21671;SDS011;10997;52.242;8.168;2023-09-30T04:23:16;17.90;;;5.47;;
21671;SDS011;10997;52.242;8.168;2023-09-30T04:28:16;15.60;;;5.00;;
21671;SDS011;10997;52.242;8.168;2023-09-30T04:33:20;18.85;;;5.53;;
21671;SDS011;10997;52.242;8.168;2023-09-30T04:38:24;18.90;;;5.20;;
21671;SDS011;10997;52.242;8.168;2023-09-30T04:43:26;22.23;;;4.88;;
21671;SDS011;10997;52.242;8.168;2023-09-30T04:48:29;14.40;;;4.35;;
21671;SDS011;10997;52.242;8.168;2023-09-30T04:53:29;18.88;;;4.82;;
21671;SDS011;10997;52.242;8.168;2023-09-30T04:58:30;15.40;;;5.18;;
21671;SDS011;10997;52.242;8.168;2023-09-30T05:03:31;17.00;;;4.53;;
21671;SDS011;10997;52.242;8.168;2023-09-30T05:08:31;16.80;;;4.53;;
21671;SDS011;10997;52.242;8.168;2023-09-30T05:13:32;20.50;;;4.80;;
21671;SDS011;10997;52.242;8.168;2023-09-30T05:18:34;18.73;;;5.38;;
21671;SDS011;10997;52.242;8.168;2023-09-30T05:23:34;18.92;;;5.38;;
21671;SDS011;10997;52.242;8.168;2023-09-30T05:28:37;20.17;;;5.47;;
21671;SDS011;10997;52.242;8.168;2023-09-30T05:33:39;22.35;;;5.70;;
21671;SDS011;10997;52.242;8.168;2023-09-30T05:38:40;24.58;;;5.57;;
21671;SDS011;10997;52.242;8.168;2023-09-30T05:43:40;22.42;;;5.53;;
21671;SDS011;10997;52.242;8.168;2023-09-30T05:48:43;20.90;;;5.55;;
21671;SDS011;10997;52.242;8.168;2023-09-30T05:53:44;17.42;;;5.57;;
21671;SDS011;10997;52.242;8.168;2023-09-30T05:58:45;20.80;;;5.40;;
21671;SDS011;10997;52.242;8.168;2023-09-30T06:03:45;21.77;;;5.65;;
21671;SDS011;10997;52.242;8.168;2023-09-30T06:08:46;19.23;;;6.40;;
21671;SDS011;10997;52.242;8.168;2023-09-30T06:13:47;19.02;;;5.45;;
21671;SDS011;10997;52.242;8.168;2023-09-30T06:18:47;19.13;;;6.75;;
21671;SDS011;10997;52.242;8.168;2023-09-30T06:23:49;17.80;;;6.40;;
21671;SDS011;10997;52.242;8.168;2023-09-30T06:28:53;19.77;;;6.63;;
21671;SDS011;10997;52.242;8.168;2023-09-30T06:33:54;24.00;;;7.65;;
21671;SDS011;10997;52.242;8.168;2023-09-30T06:38:58;21.80;;;8.07;;
21671;SDS011;10997;52.242;8.168;2023-09-30T06:43:59;19.80;;;8.25;;
21671;SDS011;10997;52.242;8.168;2023-09-30T06:48:59;23.52;;;8.98;;
21671;SDS011;10997;52.242;8.168;2023-09-30T06:54:00;22.02;;;8.82;;
21671;SDS011;10997;52.242;8.168;2023-09-30T06:59:01;21.10;;;9.48;;
21671;SDS011;10997;52.242;8.168;2023-09-30T07:04:01;19.75;;;9.20;;
21671;SDS011;10997;52.242;8.168;2023-09-30T07:09:02;19.77;;;9.30;;
21671;SDS011;10997;52.242;8.168;2023-09-30T07:14:04;25.55;;;8.95;;
21671;SDS011;10997;52.242;8.168;2023-09-30T07:19:05;19.65;;;8.27;;
21671;SDS011;10997;52.242;8.168;2023-09-30T07:24:05;16.80;;;8.68;;
21671;SDS011;10997;52.242;8.168;2023-09-30T07:29:06;19.40;;;8.68;;
21671;SDS011;10997;52.242;8.168;2023-09-30T07:34:07;19.05;;;8.15;;
21671;SDS011;10997;52.242;8.168;2023-09-30T07:39:09;16.00;;;8.23;;
21671;SDS011;10997;52.242;8.168;2023-09-30T07:44:09;20.02;;;8.93;;
21671;SDS011;10997;52.242;8.168;2023-09-30T07:49:10;15.70;;;8.00;;
21671;SDS011;10997;52.242;8.168;2023-09-30T07:54:11;16.50;;;8.43;;
21671;SDS011;10997;52.242;8.168;2023-09-30T07:59:12;16.35;;;8.10;;
21671;SDS011;10997;52.242;8.168;2023-09-30T08:04:14;18.25;;;8.75;;
21671;SDS011;10997;52.242;8.168;2023-09-30T08:09:14;17.50;;;9.70;;
21671;SDS011;10997;52.242;8.168;2023-09-30T08:14:15;20.20;;;9.23;;
21671;SDS011;10997;52.242;8.168;2023-09-30T08:19:16;19.73;;;8.70;;
21671;SDS011;10997;52.242;8.168;2023-09-30T08:29:45;15.73;;;7.82;;
21671;SDS011;10997;52.242;8.168;2023-09-30T08:34:46;17.65;;;7.65;;
21671;SDS011;10997;52.242;8.168;2023-09-30T08:39:47;17.35;;;7.90;;
21671;SDS011;10997;52.242;8.168;2023-09-30T08:44:48;16.90;;;6.65;;
21671;SDS011;10997;52.242;8.168;2023-09-30T08:49:50;16.33;;;6.93;;
21671;SDS011;10997;52.242;8.168;2023-09-30T08:54:56;15.82;;;6.75;;
21671;SDS011;10997;52.242;8.168;2023-09-30T08:59:57;17.60;;;6.57;;
21671;SDS011;10997;52.242;8.168;2023-09-30T09:04:58;19.02;;;6.28;;
21671;SDS011;10997;52.242;8.168;2023-09-30T09:10:03;15.63;;;5.90;;
21671;SDS011;10997;52.242;8.168;2023-09-30T09:15:05;15.82;;;5.43;;
21671;SDS011;10997;52.242;8.168;2023-09-30T09:20:07;12.38;;;4.95;;
21671;SDS011;10997;52.242;8.168;2023-09-30T09:25:10;13.32;;;5.32;;
21671;SDS011;10997;52.242;8.168;2023-09-30T09:35:22;16.15;;;5.10;;
21671;SDS011;10997;52.242;8.168;2023-09-30T09:40:29;14.63;;;4.57;;
21671;SDS011;10997;52.242;8.168;2023-09-30T09:45:33;13.48;;;5.03;;
21671;SDS011;10997;52.242;8.168;2023-09-30T09:50:35;18.15;;;5.95;;
21671;SDS011;10997;52.242;8.168;2023-09-30T09:55:36;14.90;;;5.75;;
21671;SDS011;10997;52.242;8.168;2023-09-30T10:00:38;14.77;;;5.32;;
21671;SDS011;10997;52.242;8.168;2023-09-30T10:05:40;15.65;;;5.63;;
21671;SDS011;10997;52.242;8.168;2023-09-30T10:10:41;13.98;;;4.65;;
21671;SDS011;10997;52.242;8.168;2023-09-30T10:15:43;13.65;;;4.90;;
21671;SDS011;10997;52.242;8.168;2023-09-30T10:20:44;14.50;;;5.80;;
21671;SDS011;10997;52.242;8.168;2023-09-30T10:25:47;12.80;;;5.25;;
21671;SDS011;10997;52.242;8.168;2023-09-30T10:36:25;14.70;;;5.28;;
21671;SDS011;10997;52.242;8.168;2023-09-30T10:41:51;13.82;;;4.80;;
21671;SDS011;10997;52.242;8.168;2023-09-30T10:46:51;13.07;;;4.80;;
21671;SDS011;10997;52.242;8.168;2023-09-30T10:51:53;13.88;;;4.57;;
21671;SDS011;10997;52.242;8.168;2023-09-30T10:56:56;10.27;;;4.28;;
21671;SDS011;10997;52.242;8.168;2023-09-30T11:02:01;13.52;;;4.07;;
21671;SDS011;10997;52.242;8.168;2023-09-30T11:07:02;15.93;;;4.20;;
21671;SDS011;10997;52.242;8.168;2023-09-30T11:12:03;9.95;;;3.47;;
21671;SDS011;10997;52.242;8.168;2023-09-30T11:17:13;16.35;;;3.83;;
21671;SDS011;10997;52.242;8.168;2023-09-30T11:22:13;9.15;;;4.05;;
21671;SDS011;10997;52.242;8.168;2023-09-30T11:27:24;11.05;;;3.70;;
21671;SDS011;10997;52.242;8.168;2023-09-30T11:32:25;12.75;;;3.58;;
21671;SDS011;10997;52.242;8.168;2023-09-30T11:37:33;12.80;;;3.83;;
21671;SDS011;10997;52.242;8.168;2023-09-30T11:42:33;9.23;;;3.47;;
21671;SDS011;10997;52.242;8.168;2023-09-30T11:47:34;9.57;;;3.85;;
21671;SDS011;10997;52.242;8.168;2023-09-30T11:52:35;12.98;;;3.83;;
21671;SDS011;10997;52.242;8.168;2023-09-30T11:57:37;13.25;;;3.95;;
21671;SDS011;10997;52.242;8.168;2023-09-30T12:02:38;8.40;;;3.40;;
21671;SDS011;10997;52.242;8.168;2023-09-30T12:07:40;10.48;;;3.65;;
21671;SDS011;10997;52.242;8.168;2023-09-30T12:12:41;12.35;;;3.80;;
21671;SDS011;10997;52.242;8.168;2023-09-30T12:17:42;8.77;;;3.42;;
21671;SDS011;10997;52.242;8.168;2023-09-30T12:22:42;12.30;;;3.80;;
21671;SDS011;10997;52.242;8.168;2023-09-30T12:27:43;11.38;;;3.70;;
21671;SDS011;10997;52.242;8.168;2023-09-30T12:32:46;9.60;;;3.50;;
21671;SDS011;10997;52.242;8.168;2023-09-30T12:37:46;9.90;;;3.20;;
21671;SDS011;10997;52.242;8.168;2023-09-30T12:42:47;10.55;;;3.70;;
21671;SDS011;10997;52.242;8.168;2023-09-30T12:47:48;9.27;;;3.67;;
21671;SDS011;10997;52.242;8.168;2023-09-30T12:52:52;11.35;;;3.58;;
21671;SDS011;10997;52.242;8.168;2023-09-30T12:57:52;10.63;;;3.38;;
21671;SDS011;10997;52.242;8.168;2023-09-30T13:02:53;12.07;;;3.78;;
21671;SDS011;10997;52.242;8.168;2023-09-30T13:07:54;8.93;;;3.33;;
21671;SDS011;10997;52.242;8.168;2023-09-30T13:12:56;8.98;;;3.50;;
21671;SDS011;10997;52.242;8.168;2023-09-30T13:17:57;8.90;;;3.28;;
21671;SDS011;10997;52.242;8.168;2023-09-30T13:22:59;9.65;;;3.53;;
21671;SDS011;10997;52.242;8.168;2023-09-30T13:28:00;10.77;;;3.50;;
21671;SDS011;10997;52.242;8.168;2023-09-30T13:33:01;9.10;;;3.75;;
21671;SDS011;10997;52.242;8.168;2023-09-30T13:38:02;9.15;;;3.20;;
21671;SDS011;10997;52.242;8.168;2023-09-30T13:43:04;9.02;;;3.17;;
21671;SDS011;10997;52.242;8.168;2023-09-30T13:48:04;9.18;;;3.75;;
21671;SDS011;10997;52.242;8.168;2023-09-30T13:53:06;10.23;;;3.50;;
21671;SDS011;10997;52.242;8.168;2023-09-30T13:58:07;9.32;;;3.38;;
21671;SDS011;10997;52.242;8.168;2023-09-30T14:03:07;9.65;;;3.70;;
21671;SDS011;10997;52.242;8.168;2023-09-30T14:08:08;9.45;;;3.60;;
21671;SDS011;10997;52.242;8.168;2023-09-30T14:13:09;10.40;;;3.45;;
21671;SDS011;10997;52.242;8.168;2023-09-30T14:18:10;12.68;;;3.90;;
21671;SDS011;10997;52.242;8.168;2023-09-30T14:23:11;11.68;;;3.80;;
21671;SDS011;10997;52.242;8.168;2023-09-30T14:28:12;9.55;;;3.47;;
21671;SDS011;10997;52.242;8.168;2023-09-30T14:33:13;10.25;;;3.63;;
21671;SDS011;10997;52.242;8.168;2023-09-30T14:38:14;9.80;;;3.58;;
21671;SDS011;10997;52.242;8.168;2023-09-30T14:43:14;11.70;;;3.72;;
21671;SDS011;10997;52.242;8.168;2023-09-30T14:48:15;13.25;;;3.25;;
21671;SDS011;10997;52.242;8.168;2023-09-30T14:53:16;7.93;;;2.80;;
21671;SDS011;10997;52.242;8.168;2023-09-30T14:58:17;9.35;;;3.25;;
21671;SDS011;10997;52.242;8.168;2023-09-30T15:03:17;11.20;;;3.53;;
21671;SDS011;10997;52.242;8.168;2023-09-30T15:08:18;6.28;;;3.10;;
21671;SDS011;10997;52.242;8.168;2023-09-30T15:13:18;11.73;;;3.20;;
21671;SDS011;10997;52.242;8.168;2023-09-30T15:18:19;8.05;;;3.20;;
21671;SDS011;10997;52.242;8.168;2023-09-30T15:23:19;10.15;;;3.17;;
21671;SDS011;10997;52.242;8.168;2023-09-30T15:28:20;9.73;;;3.00;;
21671;SDS011;10997;52.242;8.168;2023-09-30T15:33:21;6.05;;;2.78;;
21671;SDS011;10997;52.242;8.168;2023-09-30T15:38:21;12.77;;;3.80;;
21671;SDS011;10997;52.242;8.168;2023-09-30T15:43:22;8.80;;;3.70;;
21671;SDS011;10997;52.242;8.168;2023-09-30T15:48:24;9.07;;;3.28;;
21671;SDS011;10997;52.242;8.168;2023-09-30T15:53:25;8.65;;;3.60;;
21671;SDS011;10997;52.242;8.168;2023-09-30T15:58:25;7.18;;;3.10;;
21671;SDS011;10997;52.242;8.168;2023-09-30T16:03:26;6.43;;;2.85;;
21671;SDS011;10997;52.242;8.168;2023-09-30T16:08:27;11.50;;;3.47;;
21671;SDS011;10997;52.242;8.168;2023-09-30T16:13:27;9.05;;;2.97;;
21671;SDS011;10997;52.242;8.168;2023-09-30T16:18:28;9.52;;;3.17;;
21671;SDS011;10997;52.242;8.168;2023-09-30T16:23:28;10.80;;;3.70;;
21671;SDS011;10997;52.242;8.168;2023-09-30T16:28:29;13.48;;;4.68;;
21671;SDS011;10997;52.242;8.168;2023-09-30T16:33:29;10.57;;;4.65;;
21671;SDS011;10997;52.242;8.168;2023-09-30T16:38:30;32.28;;;18.83;;
21671;SDS011;10997;52.242;8.168;2023-09-30T16:43:32;77.07;;;52.22;;
21671;SDS011;10997;52.242;8.168;2023-09-30T16:48:32;50.30;;;36.90;;
21671;SDS011;10997;52.242;8.168;2023-09-30T16:53:33;19.15;;;13.75;;
21671;SDS011;10997;52.242;8.168;2023-09-30T16:58:34;13.18;;;6.38;;
21671;SDS011;10997;52.242;8.168;2023-09-30T17:03:34;11.70;;;4.70;;
21671;SDS011;10997;52.242;8.168;2023-09-30T17:08:35;10.15;;;4.30;;
21671;SDS011;10997;52.242;8.168;2023-09-30T17:13:35;13.50;;;4.45;;
21671;SDS011;10997;52.242;8.168;2023-09-30T17:18:37;10.30;;;4.70;;
21671;SDS011;10997;52.242;8.168;2023-09-30T17:23:37;11.95;;;5.47;;
21671;SDS011;10997;52.242;8.168;2023-09-30T17:28:38;11.68;;;5.82;;
21671;SDS011;10997;52.242;8.168;2023-09-30T17:33:38;10.27;;;5.10;;
21671;SDS011;10997;52.242;8.168;2023-09-30T17:38:40;11.27;;;6.03;;
21671;SDS011;10997;52.242;8.168;2023-09-30T17:43:41;18.02;;;6.32;;
21671;SDS011;10997;52.242;8.168;2023-09-30T17:48:42;13.77;;;6.05;;
21671;SDS011;10997;52.242;8.168;2023-09-30T17:53:46;13.32;;;6.18;;
21671;SDS011;10997;52.242;8.168;2023-09-30T17:58:47;12.02;;;6.30;;
21671;SDS011;10997;52.242;8.168;2023-09-30T18:03:48;11.07;;;5.75;;
21671;SDS011;10997;52.242;8.168;2023-09-30T18:08:49;11.90;;;5.70;;
21671;SDS011;10997;52.242;8.168;2023-09-30T18:13:50;12.32;;;7.30;;
21671;SDS011;10997;52.242;8.168;2023-09-30T18:18:51;13.15;;;9.15;;
21671;SDS011;10997;52.242;8.168;2023-09-30T18:23:52;15.32;;;7.00;;
21671;SDS011;10997;52.242;8.168;2023-09-30T18:28:52;14.00;;;5.50;;
21671;SDS011;10997;52.242;8.168;2023-09-30T18:33:55;10.82;;;5.80;;
21671;SDS011;10997;52.242;8.168;2023-09-30T18:38:55;12.30;;;5.47;;
21671;SDS011;10997;52.242;8.168;2023-09-30T18:43:56;10.43;;;5.38;;
21671;SDS011;10997;52.242;8.168;2023-09-30T18:48:57;12.40;;;5.70;;
21671;SDS011;10997;52.242;8.168;2023-09-30T18:53:57;13.13;;;6.05;;
21671;SDS011;10997;52.242;8.168;2023-09-30T18:58:58;12.18;;;6.30;;
21671;SDS011;10997;52.242;8.168;2023-09-30T19:03:59;13.45;;;6.00;;
21671;SDS011;10997;52.242;8.168;2023-09-30T19:09:02;12.00;;;6.78;;
21671;SDS011;10997;52.242;8.168;2023-09-30T19:14:02;11.70;;;6.35;;
21671;SDS011;10997;52.242;8.168;2023-09-30T19:19:06;13.38;;;6.28;;
21671;SDS011;10997;52.242;8.168;2023-09-30T19:24:06;14.73;;;7.30;;
21671;SDS011;10997;52.242;8.168;2023-09-30T19:29:08;17.00;;;7.05;;
21671;SDS011;10997;52.242;8.168;2023-09-30T19:34:09;13.20;;;7.43;;
21671;SDS011;10997;52.242;8.168;2023-09-30T19:39:11;14.68;;;7.40;;
21671;SDS011;10997;52.242;8.168;2023-09-30T19:44:12;15.82;;;7.30;;
21671;SDS011;10997;52.242;8.168;2023-09-30T19:49:13;15.70;;;6.53;;
21671;SDS011;10997;52.242;8.168;2023-09-30T19:54:16;14.55;;;7.32;;
21671;SDS011;10997;52.242;8.168;2023-09-30T19:59:17;13.50;;;7.95;;
21671;SDS011;10997;52.242;8.168;2023-09-30T20:04:18;13.13;;;6.78;;
21671;SDS011;10997;52.242;8.168;2023-09-30T20:09:19;14.00;;;7.68;;
21671;SDS011;10997;52.242;8.168;2023-09-30T20:14:22;16.50;;;8.07;;
21671;SDS011;10997;52.242;8.168;2023-09-30T20:19:23;14.90;;;7.85;;
21671;SDS011;10997;52.242;8.168;2023-09-30T20:24:24;12.18;;;7.57;;
21671;SDS011;10997;52.242;8.168;2023-09-30T20:29:24;15.65;;;7.78;;
21671;SDS011;10997;52.242;8.168;2023-09-30T20:34:25;14.60;;;7.70;;
21671;SDS011;10997;52.242;8.168;2023-09-30T20:39:25;14.57;;;7.07;;
21671;SDS011;10997;52.242;8.168;2023-09-30T20:44:27;15.43;;;7.88;;
21671;SDS011;10997;52.242;8.168;2023-09-30T20:49:28;15.50;;;8.77;;
21671;SDS011;10997;52.242;8.168;2023-09-30T20:54:29;11.15;;;7.25;;
21671;SDS011;10997;52.242;8.168;2023-09-30T20:59:33;13.30;;;7.43;;
21671;SDS011;10997;52.242;8.168;2023-09-30T21:04:35;12.82;;;7.22;;
21671;SDS011;10997;52.242;8.168;2023-09-30T21:09:37;14.65;;;7.50;;
21671;SDS011;10997;52.242;8.168;2023-09-30T21:14:38;10.48;;;7.20;;
21671;SDS011;10997;52.242;8.168;2023-09-30T21:19:38;13.35;;;7.43;;
21671;SDS011;10997;52.242;8.168;2023-09-30T21:24:39;13.32;;;7.70;;
21671;SDS011;10997;52.242;8.168;2023-09-30T21:29:40;14.70;;;8.15;;
21671;SDS011;10997;52.242;8.168;2023-09-30T21:34:40;15.13;;;8.10;;
21671;SDS011;10997;52.242;8.168;2023-09-30T21:39:41;16.05;;;9.02;;
21671;SDS011;10997;52.242;8.168;2023-09-30T21:44:42;13.65;;;8.32;;
21671;SDS011;10997;52.242;8.168;2023-09-30T21:49:44;17.88;;;9.68;;
21671;SDS011;10997;52.242;8.168;2023-09-30T21:54:45;16.10;;;8.68;;
21671;SDS011;10997;52.242;8.168;2023-09-30T21:59:45;16.50;;;9.60;;
21671;SDS011;10997;52.242;8.168;2023-09-30T22:04:47;16.85;;;9.05;;
21671;SDS011;10997;52.242;8.168;2023-09-30T22:09:48;13.93;;;9.40;;
21671;SDS011;10997;52.242;8.168;2023-09-30T22:14:48;14.40;;;9.85;;
21671;SDS011;10997;52.242;8.168;2023-09-30T22:19:49;14.32;;;9.30;;
21671;SDS011;10997;52.242;8.168;2023-09-30T22:24:50;15.57;;;9.27;;
21671;SDS011;10997;52.242;8.168;2023-09-30T22:29:54;16.00;;;9.30;;
21671;SDS011;10997;52.242;8.168;2023-09-30T22:34:54;15.32;;;9.52;;
21671;SDS011;10997;52.242;8.168;2023-09-30T22:39:55;16.83;;;9.75;;
21671;SDS011;10997;52.242;8.168;2023-09-30T22:44:56;16.63;;;9.90;;
21671;SDS011;10997;52.242;8.168;2023-09-30T22:49:56;16.85;;;9.85;;
21671;SDS011;10997;52.242;8.168;2023-09-30T22:54:57;13.35;;;9.60;;
21671;SDS011;10997;52.242;8.168;2023-09-30T22:59:58;16.13;;;10.32;;
21671;SDS011;10997;52.242;8.168;2023-09-30T23:05:02;17.85;;;10.68;;
21671;SDS011;10997;52.242;8.168;2023-09-30T23:10:03;14.07;;;10.15;;
21671;SDS011;10997;52.242;8.168;2023-09-30T23:20:11;17.30;;;10.90;;
21671;SDS011;10997;52.242;8.168;2023-09-30T23:25:16;18.23;;;11.55;;
21671;SDS011;10997;52.242;8.168;2023-09-30T23:30:26;15.73;;;10.90;;
21671;SDS011;10997;52.242;8.168;2023-09-30T23:35:28;18.05;;;11.80;;
21671;SDS011;10997;52.242;8.168;2023-09-30T23:40:30;21.08;;;11.82;;
21671;SDS011;10997;52.242;8.168;2023-09-30T23:45:36;15.88;;;11.63;;
21671;SDS011;10997;52.242;8.168;2023-09-30T23:50:37;18.85;;;11.98;;
21671;SDS011;10997;52.242;8.168;2023-09-30T23:55:37;18.58;;;12.80;;
